Terminal Aerodrome Forecast
Issued by NWS

Home | Current Version | Previous Version | Text Only | Print | Product List | Glossary On
Versions: 1 2 3 4 5 6 7 8 9 10 11 12 13 14 15 16 17 18
000
FTUS44 KBMX 230700 AAA
TAFTCL
TAF AMD
KTCL 230719Z 2307/2406 00000KT 4SM BR SCT035 SCT100
     FM231100 00000KT 3SM BR BKN015
     FM231500 24004KT P6SM SCT015 BKN025
     FM231900 27005KT P6SM VCTS BKN040CB=

USA.gov is the U.S. government's official web portal to all federal, state and local government web resources and services.